Time;durP1;ratioP1;P1;durP2;ratioP2;P2;SDS_P1;SDS_P2;PMS_P1;PMS_P2;Temp;Humidity;BMP_temperature;BMP_pressure;BME280_temperature;BME280_humidity;BME280_pressure;Samples;Min_cycle;Max_cycle;Signal;HPM_P1;HPM_P2
2023/10/22 00:00:47;;;;;;;3.17;0.87;;;14.60;99.90;;;;;;5075756;28;20194;-80
2023/10/22 00:03:12;;;;;;;3.30;1.00;;;14.60;99.90;;;;;;5077480;28;21004;-81
2023/10/22 00:05:38;;;;;;;4.73;1.37;;;14.60;99.90;;;;;;5067952;28;20269;-81
2023/10/22 00:08:03;;;;;;;5.40;1.10;;;14.60;99.90;;;;;;5066642;28;20284;-79
2023/10/22 00:10:29;;;;;;;1.83;0.77;;;14.60;99.90;;;;;;5074194;28;20189;-80
2023/10/22 00:12:54;;;;;;;3.33;1.10;;;14.60;99.90;;;;;;5074561;28;20194;-80
2023/10/22 00:15:20;;;;;;;4.37;0.77;;;14.60;99.90;;;;;;5070476;28;20270;-80
2023/10/22 00:17:46;;;;;;;5.10;1.13;;;14.60;99.90;;;;;;5069649;28;20647;-80
2023/10/22 00:20:12;;;;;;;2.60;0.80;;;14.60;99.90;;;;;;5064692;28;20194;-81
2023/10/22 00:22:38;;;;;;;6.47;1.07;;;14.60;99.90;;;;;;5074979;28;20470;-81
2023/10/22 00:25:05;;;;;;;2.63;0.73;;;14.60;99.90;;;;;;5073391;28;20451;-80
2023/10/22 00:27:32;;;;;;;2.50;0.70;;;14.60;99.90;;;;;;5075918;28;20655;-81
2023/10/22 00:29:58;;;;;;;2.50;0.97;;;14.60;99.90;;;;;;5071369;28;20423;-81
2023/10/22 00:32:23;;;;;;;3.80;1.00;;;14.60;99.90;;;;;;5072720;28;20788;-81
2023/10/22 00:34:49;;;;;;;1.40;0.70;;;14.60;1.00;;;;;;5072581;28;20209;-80
2023/10/22 00:37:15;;;;;;;5.17;1.00;;;14.60;1.00;;;;;;5073058;28;20617;-81
2023/10/22 00:39:41;;;;;;;4.03;0.90;;;14.60;1.00;;;;;;5074490;28;20264;-81
2023/10/22 00:42:07;;;;;;;7.43;1.10;;;14.60;1.00;;;;;;5072609;28;20178;-81
2023/10/22 00:44:34;;;;;;;5.03;1.07;;;14.70;1.00;;;;;;5076412;28;20830;-80
2023/10/22 00:47:00;;;;;;;3.10;0.93;;;14.60;1.00;;;;;;5075649;28;20211;-81
2023/10/22 00:49:25;;;;;;;3.03;1.13;;;14.70;1.00;;;;;;5076287;28;20446;-81
2023/10/22 00:51:52;;;;;;;3.40;1.43;;;14.70;1.00;;;;;;5074780;28;20250;-79
2023/10/22 00:54:19;;;;;;;2.50;0.90;;;14.70;1.00;;;;;;5075317;28;20201;-79
2023/10/22 00:56:45;;;;;;;8.00;1.20;;;14.60;1.00;;;;;;5074709;28;20869;-81
2023/10/22 00:59:14;;;;;;;2.20;0.70;;;14.60;1.00;;;;;;5076454;28;20431;-79
2023/10/22 01:01:40;;;;;;;2.27;0.93;;;14.60;1.00;;;;;;5075180;28;20428;-80
2023/10/22 01:04:06;;;;;;;4.90;1.10;;;14.60;1.00;;;;;;5073166;28;20435;-81
2023/10/22 01:06:31;;;;;;;5.00;0.80;;;14.60;1.00;;;;;;5075227;28;20457;-81
2023/10/22 01:08:59;;;;;;;1.83;0.70;;;14.60;1.00;;;;;;5074606;28;20174;-82
2023/10/22 01:11:24;;;;;;;5.43;0.90;;;14.60;59.70;;;;;;5073919;28;20208;-81
2023/10/22 01:13:50;;;;;;;4.07;1.10;;;14.60;99.90;;;;;;5073269;28;20517;-80
2023/10/22 01:16:16;;;;;;;3.20;1.23;;;14.60;99.90;;;;;;5068769;28;20205;-81
2023/10/22 01:18:41;;;;;;;2.07;1.03;;;14.60;99.90;;;;;;5067122;28;20189;-81
2023/10/22 01:21:07;;;;;;;4.10;0.80;;;14.60;99.90;;;;;;5075516;28;20444;-81
2023/10/22 01:23:37;;;;;;;4.93;1.00;;;14.60;99.90;;;;;;5071596;28;20182;-81
2023/10/22 01:26:04;;;;;;;2.70;0.77;;;14.60;99.90;;;;;;5070142;28;20456;-81
2023/10/22 01:28:30;;;;;;;2.93;0.90;;;14.60;99.90;;;;;;5060490;28;20444;-80
2023/10/22 01:30:57;;;;;;;3.60;0.90;;;14.60;99.90;;;;;;5074702;28;20455;-80
2023/10/22 01:33:22;;;;;;;1.20;0.60;;;14.60;99.90;;;;;;5071379;28;20463;-81
2023/10/22 01:35:48;;;;;;;3.20;0.80;;;14.60;99.90;;;;;;5065715;28;20470;-81
2023/10/22 01:38:13;;;;;;;2.77;0.90;;;14.60;99.90;;;;;;5066772;28;20185;-82
2023/10/22 01:40:39;;;;;;;2.63;1.00;;;14.60;99.90;;;;;;5073358;28;20185;-81
2023/10/22 01:43:04;;;;;;;1.43;0.70;;;14.60;99.90;;;;;;5074914;28;20181;-82
2023/10/22 01:45:30;;;;;;;2.70;0.70;;;14.60;99.90;;;;;;5072336;28;20205;-80
2023/10/22 01:47:56;;;;;;;4.00;0.80;;;14.60;99.90;;;;;;5075423;28;20254;-81
2023/10/22 01:50:21;;;;;;;2.23;0.93;;;14.60;99.90;;;;;;5066587;28;20181;-81
2023/10/22 01:52:47;;;;;;;2.13;0.90;;;14.60;99.90;;;;;;5074284;28;20522;-82
2023/10/22 01:55:12;;;;;;;2.23;0.93;;;14.60;99.90;;;;;;5072936;28;20289;-81
2023/10/22 01:57:38;;;;;;;2.27;0.90;;;14.50;1.00;;;;;;5069428;28;20566;-82
2023/10/22 02:00:04;;;;;;;1.57;0.83;;;14.50;1.00;;;;;;5074509;28;20607;-82
2023/10/22 02:02:30;;;;;;;1.10;0.70;;;14.50;99.90;;;;;;5066422;28;20197;-80
2023/10/22 02:04:55;;;;;;;3.50;1.00;;;14.40;1.00;;;;;;5071517;28;20459;-81
2023/10/22 02:07:21;;;;;;;1.63;0.80;;;14.40;99.90;;;;;;5072327;28;20722;-81
2023/10/22 02:09:46;;;;;;;2.27;0.90;;;14.30;1.00;;;;;;5070583;28;20251;-80
2023/10/22 02:12:12;;;;;;;1.60;0.70;;;14.20;1.00;;;;;;5070461;28;20185;-79
2023/10/22 02:14:37;;;;;;;2.03;0.87;;;14.20;99.90;;;;;;5060858;28;20388;-82
2023/10/22 02:17:03;;;;;;;1.47;0.80;;;14.10;76.30;;;;;;5072819;28;20196;-81
2023/10/22 02:19:29;;;;;;;2.50;0.80;;;14.10;99.90;;;;;;5071915;28;20196;-81
2023/10/22 02:21:54;;;;;;;2.13;0.73;;;14.00;1.00;;;;;;5068696;28;20439;-80
2023/10/22 02:24:20;;;;;;;1.50;0.80;;;14.00;1.00;;;;;;5060801;28;20196;-81
2023/10/22 02:26:46;;;;;;;2.50;0.80;;;14.00;99.90;;;;;;5065912;28;20188;-82
2023/10/22 02:29:13;;;;;;;3.80;0.87;;;13.90;1.00;;;;;;5063196;28;20182;-81
2023/10/22 02:31:39;;;;;;;1.67;0.60;;;13.90;1.00;;;;;;5069744;28;20842;-81
2023/10/22 02:34:08;;;;;;;1.10;0.60;;;13.80;1.00;;;;;;5066208;28;20504;-79
2023/10/22 02:36:34;;;;;;;2.70;0.70;;;13.80;20.80;;;;;;5065713;28;20817;-81
2023/10/22 02:39:00;;;;;;;3.50;0.70;;;13.80;99.90;;;;;;5069840;28;20435;-80
2023/10/22 02:41:28;;;;;;;1.10;0.60;;;13.70;99.90;;;;;;5069877;28;20435;-81
2023/10/22 02:43:55;;;;;;;4.33;0.80;;;13.70;99.90;;;;;;5068893;28;20525;-80
2023/10/22 02:46:20;;;;;;;2.10;0.97;;;13.70;99.90;;;;;;5069451;28;20466;-82
2023/10/22 02:48:46;;;;;;;2.70;0.70;;;13.70;1.00;;;;;;5073332;28;20435;-81
2023/10/22 02:51:11;;;;;;;2.60;0.90;;;13.60;1.00;;;;;;5066957;28;20824;-81
2023/10/22 02:53:38;;;;;;;2.07;0.80;;;13.60;1.00;;;;;;5071371;28;20625;-80
2023/10/22 02:56:04;;;;;;;1.30;0.70;;;13.60;1.00;;;;;;5072971;28;20209;-81
2023/10/22 02:58:29;;;;;;;1.73;0.97;;;13.60;1.00;;;;;;5073079;28;20431;-80
2023/10/22 03:00:56;;;;;;;2.40;0.70;;;13.50;1.00;;;;;;5063171;28;20852;-81
2023/10/22 03:03:22;;;;;;;2.67;0.90;;;13.50;1.00;;;;;;5070878;28;20251;-81
2023/10/22 03:05:47;;;;;;;3.03;0.90;;;13.50;1.00;;;;;;5072520;28;21011;-81
2023/10/22 03:08:13;;;;;;;1.50;0.77;;;13.50;1.00;;;;;;5070615;28;20498;-82
2023/10/22 03:10:38;;;;;;;1.60;0.97;;;13.50;1.00;;;;;;5061822;28;20209;-80
2023/10/22 03:13:04;;;;;;;3.40;1.00;;;13.50;1.00;;;;;;5071161;28;20212;-82
2023/10/22 03:15:30;;;;;;;3.33;0.90;;;13.40;1.00;;;;;;5073325;28;20284;-81
2023/10/22 03:17:56;;;;;;;1.57;0.77;;;13.40;1.00;;;;;;5068942;28;20189;-81
2023/10/22 03:20:23;;;;;;;1.20;0.70;;;13.40;1.00;;;;;;5065879;28;20427;-81
2023/10/22 03:22:48;;;;;;;5.00;1.20;;;13.50;1.00;;;;;;5060049;28;20949;-81
2023/10/22 03:25:14;;;;;;;1.73;0.80;;;13.40;1.00;;;;;;5076474;28;20459;-82
2023/10/22 03:27:40;;;;;;;3.00;1.00;;;13.40;99.90;;;;;;5076480;28;20188;-81
2023/10/22 03:30:06;;;;;;;2.00;0.77;;;13.50;99.90;;;;;;5075111;28;20247;-81
2023/10/22 03:32:31;;;;;;;2.53;0.80;;;13.50;99.90;;;;;;5070088;28;20200;-81
2023/10/22 03:34:57;;;;;;;1.20;0.60;;;13.40;1.00;;;;;;5066222;28;20471;-80
2023/10/22 03:37:23;;;;;;;1.43;0.70;;;13.50;1.00;;;;;;5073278;28;20198;-82
2023/10/22 03:39:48;;;;;;;2.13;1.00;;;13.50;1.00;;;;;;5073995;28;20435;-81
2023/10/22 03:42:14;;;;;;;1.20;0.70;;;13.50;1.00;;;;;;5064151;28;20182;-82
2023/10/22 03:44:40;;;;;;;4.73;0.80;;;13.50;1.00;;;;;;5072749;28;20296;-80
2023/10/22 03:47:05;;;;;;;3.37;0.77;;;13.50;99.90;;;;;;5067993;28;20194;-81
2023/10/22 03:49:31;;;;;;;1.50;0.80;;;13.50;1.00;;;;;;5073423;28;20443;-82
2023/10/22 03:51:56;;;;;;;1.03;0.70;;;13.50;1.00;;;;;;5069336;28;20204;-81
2023/10/22 03:54:22;;;;;;;2.17;0.70;;;13.50;99.90;;;;;;5064810;28;20654;-80
2023/10/22 03:56:47;;;;;;;1.20;0.60;;;13.50;99.90;;;;;;5070925;28;20189;-82
2023/10/22 03:59:13;;;;;;;2.17;0.70;;;13.50;1.00;;;;;;5074941;28;20189;-81
2023/10/22 04:01:38;;;;;;;4.30;1.13;;;13.50;1.00;;;;;;5072774;28;20603;-81
2023/10/22 04:04:04;;;;;;;4.10;0.70;;;13.60;1.00;;;;;;5073908;28;20274;-82
2023/10/22 04:06:31;;;;;;;1.63;0.70;;;13.60;1.00;;;;;;5066245;28;20296;-81
2023/10/22 04:08:56;;;;;;;1.43;0.63;;;13.60;1.00;;;;;;5060094;28;20264;-81
2023/10/22 04:11:22;;;;;;;1.30;0.63;;;13.60;1.00;;;;;;5076177;28;20460;-81
2023/10/22 04:13:47;;;;;;;1.30;1.00;;;13.60;1.00;;;;;;5072611;28;20241;-81
2023/10/22 04:16:16;;;;;;;2.00;0.73;;;13.60;1.00;;;;;;5075359;28;20244;-81
2023/10/22 04:18:42;;;;;;;2.23;1.00;;;13.60;1.00;;;;;;5074986;28;20192;-81
2023/10/22 04:21:16;;;;;;;1.17;0.67;;;13.60;1.00;;;;;;5070304;28;20444;-80
2023/10/22 04:23:42;;;;;;;1.33;0.73;;;13.50;1.00;;;;;;5074725;28;20185;-81
2023/10/22 04:26:14;;;;;;;5.60;1.20;;;13.50;1.00;;;;;;5070755;28;20467;-81
2023/10/22 04:28:42;;;;;;;1.43;0.83;;;13.50;1.00;;;;;;5071633;28;20452;-82
2023/10/22 04:31:11;;;;;;;2.17;0.70;;;13.50;1.00;;;;;;5067791;28;20440;-81
2023/10/22 04:33:36;;;;;;;2.37;1.03;;;13.50;1.00;;;;;;5076338;28;20522;-81
2023/10/22 04:36:03;;;;;;;3.00;0.70;;;13.40;1.00;;;;;;5077056;28;20463;-83
2023/10/22 04:38:29;;;;;;;1.97;0.80;;;13.30;1.00;;;;;;5069775;28;20178;-82
2023/10/22 04:40:55;;;;;;;2.10;0.83;;;13.30;1.00;;;;;;5069076;28;20432;-81
2023/10/22 04:43:21;;;;;;;1.10;0.60;;;13.30;1.00;;;;;;5062586;28;20850;-81
2023/10/22 04:45:50;;;;;;;3.27;0.83;;;13.20;1.00;;;;;;5076229;28;20750;-82
2023/10/22 04:48:16;;;;;;;1.20;0.70;;;13.10;1.00;;;;;;5073540;28;20196;-82
2023/10/22 04:50:42;;;;;;;1.80;0.70;;;13.10;1.00;;;;;;5070114;28;20432;-80
2023/10/22 04:53:08;;;;;;;1.37;0.70;;;13.10;1.00;;;;;;5085739;28;20467;-82
2023/10/22 04:55:34;;;;;;;1.30;0.80;;;13.10;1.00;;;;;;5073715;28;20451;-81
2023/10/22 04:58:01;;;;;;;2.73;0.70;;;13.00;1.00;;;;;;5075570;28;20235;-81
2023/10/22 05:00:27;;;;;;;1.57;0.70;;;13.00;1.00;;;;;;5068994;28;20424;-82
2023/10/22 05:02:53;;;;;;;1.43;0.60;;;13.00;1.00;;;;;;5071215;28;20974;-82
2023/10/22 05:05:20;;;;;;;1.00;0.60;;;13.00;1.00;;;;;;5065525;28;20297;-81
2023/10/22 05:07:47;;;;;;;2.63;0.80;;;13.00;1.00;;;;;;5070722;28;20169;-81
2023/10/22 05:10:12;;;;;;;1.57;0.70;;;12.90;99.90;;;;;;5075417;28;20435;-81
2023/10/22 05:12:38;;;;;;;2.13;0.70;;;12.90;99.90;;;;;;5070797;28;20428;-81
2023/10/22 05:15:04;;;;;;;1.23;0.73;;;12.80;99.90;;;;;;5074014;28;20242;-82
2023/10/22 05:17:29;;;;;;;1.40;0.80;;;12.80;99.90;;;;;;5063528;28;20204;-81
2023/10/22 05:19:55;;;;;;;1.67;0.60;;;12.70;99.90;;;;;;5072799;28;20493;-81
2023/10/22 05:22:21;;;;;;;1.67;0.80;;;12.70;99.90;;;;;;5066259;28;20651;-81
2023/10/22 05:24:48;;;;;;;1.20;0.67;;;12.60;96.30;;;;;;5069321;28;20201;-80
2023/10/22 05:27:14;;;;;;;1.20;0.70;;;12.60;99.90;;;;;;5075043;28;20185;-81
2023/10/22 05:29:39;;;;;;;1.00;0.60;;;12.60;99.90;;;;;;5074170;28;20481;-81
2023/10/22 05:32:05;;;;;;;1.77;0.93;;;12.60;99.90;;;;;;5071914;28;20474;-82
2023/10/22 05:34:31;;;;;;;1.27;0.60;;;12.60;99.90;;;;;;5066160;28;20209;-81
2023/10/22 05:36:57;;;;;;;1.60;0.70;;;12.50;99.90;;;;;;5067390;28;20186;-82
2023/10/22 05:39:22;;;;;;;3.40;0.90;;;12.50;99.90;;;;;;5060584;28;20488;-82
2023/10/22 05:41:48;;;;;;;1.00;0.60;;;12.50;99.90;;;;;;5073344;28;20215;-82
2023/10/22 05:44:14;;;;;;;1.33;0.70;;;12.50;99.90;;;;;;5070005;28;20196;-81
2023/10/22 05:46:41;;;;;;;2.50;0.80;;;12.50;99.90;;;;;;5073968;28;20459;-82
2023/10/22 05:49:09;;;;;;;1.63;0.70;;;12.60;99.90;;;;;;5070017;28;20192;-81
2023/10/22 05:51:35;;;;;;;3.70;0.93;;;12.60;99.90;;;;;;5062671;28;20436;-81
2023/10/22 05:54:01;;;;;;;1.10;0.70;;;12.60;99.90;;;;;;5070309;28;20466;-80
2023/10/22 05:56:30;;;;;;;1.27;0.70;;;12.60;99.90;;;;;;5069700;28;20202;-81
2023/10/22 05:58:56;;;;;;;5.13;0.90;;;12.60;99.90;;;;;;5074158;28;20439;-82
2023/10/22 06:01:22;;;;;;;2.20;0.70;;;12.60;99.90;;;;;;5069390;28;20436;-81
2023/10/22 06:03:48;;;;;;;1.20;0.80;;;12.70;99.90;;;;;;5064071;28;20550;-81
2023/10/22 06:06:18;;;;;;;1.50;0.70;;;12.70;99.90;;;;;;5070658;28;20519;-82
2023/10/22 06:08:45;;;;;;;3.30;0.63;;;12.70;99.90;;;;;;5068495;28;20481;-79
2023/10/22 06:11:11;;;;;;;2.03;0.70;;;12.70;99.90;;;;;;5070167;28;20432;-81
2023/10/22 06:13:36;;;;;;;1.00;0.70;;;12.80;15.20;;;;;;5083328;28;20456;-80
2023/10/22 06:16:02;;;;;;;2.57;1.07;;;12.80;1.00;;;;;;5070335;28;20251;-81
2023/10/22 06:18:28;;;;;;;4.20;0.80;;;12.80;1.00;;;;;;5062037;28;20177;-80
2023/10/22 06:20:54;;;;;;;1.10;0.70;;;12.80;1.00;;;;;;5065318;28;20251;-81
2023/10/22 06:23:20;;;;;;;2.23;0.80;;;12.90;99.90;;;;;;5064028;28;20991;-80
2023/10/22 06:25:46;;;;;;;1.30;0.83;;;12.80;1.00;;;;;;5069651;28;20212;-80
2023/10/22 06:28:11;;;;;;;3.40;1.20;;;12.80;99.90;;;;;;5072732;28;20427;-81
2023/10/22 06:30:37;;;;;;;2.87;1.10;;;12.80;99.90;;;;;;5056119;28;20208;-81
2023/10/22 06:33:03;;;;;;;2.93;1.20;;;12.80;99.90;;;;;;5060241;28;20199;-81
2023/10/22 06:35:30;;;;;;;2.57;0.97;;;12.80;99.90;;;;;;5066317;28;20204;-80
2023/10/22 06:37:56;;;;;;;1.30;1.00;;;12.90;99.90;;;;;;5061322;28;20420;-80
2023/10/22 06:40:22;;;;;;;1.10;0.70;;;12.90;99.90;;;;;;5073288;28;20432;-81
2023/10/22 06:42:48;;;;;;;2.07;0.70;;;12.90;99.90;;;;;;5074280;28;20423;-81
2023/10/22 06:45:18;;;;;;;1.53;0.73;;;12.90;99.90;;;;;;5072978;28;20474;-79
2023/10/22 06:47:45;;;;;;;2.20;0.80;;;13.00;99.90;;;;;;5070808;28;20801;-80
2023/10/22 06:50:11;;;;;;;1.40;0.80;;;13.00;99.90;;;;;;5066229;28;20459;-79
2023/10/22 06:52:38;;;;;;;2.90;1.10;;;13.10;99.90;;;;;;5073740;28;20436;-80
2023/10/22 06:55:04;;;;;;;3.07;1.57;;;13.10;99.90;;;;;;5067268;28;20463;-81
2023/10/22 06:57:30;;;;;;;1.97;1.20;;;13.20;52.70;;;;;;5071305;28;20464;-81
2023/10/22 06:59:57;;;;;;;1.90;1.43;;;13.30;1.00;;;;;;5071795;28;20436;-81
2023/10/22 07:02:24;;;;;;;2.20;1.07;;;13.40;1.00;;;;;;5065806;28;20523;-80
2023/10/22 07:04:54;;;;;;;1.93;0.93;;;13.50;1.00;;;;;;5067179;28;20468;-80
2023/10/22 07:07:20;;;;;;;1.97;0.70;;;13.50;99.90;;;;;;5068957;28;20462;-81
2023/10/22 07:09:45;;;;;;;2.00;1.00;;;13.50;70.70;;;;;;5077042;28;20497;-81
2023/10/22 07:12:11;;;;;;;1.83;0.80;;;13.50;1.00;;;;;;5075727;28;20889;-80
2023/10/22 07:14:36;;;;;;;1.10;0.80;;;13.50;1.00;;;;;;5067010;28;20231;-80
2023/10/22 07:17:02;;;;;;;1.83;0.90;;;13.50;20.60;;;;;;5071351;28;20186;-80
2023/10/22 07:19:28;;;;;;;1.60;1.00;;;13.50;99.90;;;;;;5062633;28;20181;-81
2023/10/22 07:21:54;;;;;;;3.27;0.87;;;13.50;99.90;;;;;;5076911;28;20599;-79
2023/10/22 07:24:19;;;;;;;1.20;0.70;;;13.50;1.00;;;;;;5074718;28;20870;-81
2023/10/22 07:26:45;;;;;;;2.20;0.70;;;13.50;1.00;;;;;;5078779;28;20181;-81
2023/10/22 07:29:12;;;;;;;5.67;1.07;;;13.50;1.00;;;;;;5072557;28;20189;-80
2023/10/22 07:31:37;;;;;;;1.53;0.90;;;13.60;1.00;;;;;;5059725;28;20189;-80
2023/10/22 07:34:03;;;;;;;1.60;0.90;;;13.60;1.00;;;;;;5076216;28;20477;-80
2023/10/22 07:36:28;;;;;;;1.77;1.00;;;13.60;1.00;;;;;;5073850;28;20209;-80
2023/10/22 07:38:54;;;;;;;1.80;1.03;;;13.70;1.00;;;;;;5073576;28;20185;-79
2023/10/22 07:41:19;;;;;;;2.00;1.40;;;13.70;1.00;;;;;;5074042;28;20644;-81
2023/10/22 07:43:46;;;;;;;3.63;1.20;;;13.80;1.00;;;;;;5076268;28;20188;-79
2023/10/22 07:46:15;;;;;;;2.40;0.83;;;13.80;1.00;;;;;;5074160;28;20209;-80
2023/10/22 07:48:42;;;;;;;2.37;1.03;;;13.80;1.00;;;;;;5073440;28;20434;-79
2023/10/22 07:51:15;;;;;;;2.63;1.13;;;13.90;1.00;;;;;;5075741;28;20435;-79
2023/10/22 07:53:41;;;;;;;2.13;0.93;;;13.90;99.90;;;;;;5076680;28;20471;-80
2023/10/22 07:56:08;;;;;;;3.93;1.30;;;14.00;99.90;;;;;;5073631;28;20463;-80
2023/10/22 07:58:35;;;;;;;2.37;1.27;;;14.00;99.90;;;;;;5072438;28;20442;-79
2023/10/22 08:01:02;;;;;;;2.30;1.00;;;14.10;99.90;;;;;;5071038;28;20436;-79
2023/10/22 08:03:31;;;;;;;3.50;1.57;;;14.10;99.90;;;;;;5076297;28;20488;-79
2023/10/22 08:05:58;;;;;;;2.70;1.60;;;14.20;99.90;;;;;;5076460;28;20539;-79
2023/10/22 08:08:23;;;;;;;3.10;1.30;;;14.20;62.50;;;;;;5074618;28;20443;-79
2023/10/22 08:10:50;;;;;;;2.37;1.10;;;14.30;1.00;;;;;;5075646;28;20451;-79
2023/10/22 08:13:15;;;;;;;3.27;1.50;;;14.40;1.00;;;;;;5069884;28;20209;-80
2023/10/22 08:15:41;;;;;;;2.60;1.53;;;14.50;1.00;;;;;;5065119;28;20497;-79
2023/10/22 08:18:06;;;;;;;3.20;1.07;;;14.60;99.90;;;;;;5070913;28;20190;-79
2023/10/22 08:20:32;;;;;;;1.50;0.80;;;14.70;1.00;;;;;;5077272;28;20311;-80
2023/10/22 08:22:58;;;;;;;2.20;1.30;;;14.80;1.00;;;;;;5077123;28;20230;-80
2023/10/22 08:25:23;;;;;;;1.57;1.00;;;14.80;1.00;;;;;;5074407;28;20445;-79
2023/10/22 08:27:49;;;;;;;3.07;1.10;;;14.90;1.00;;;;;;5077518;28;20189;-80
2023/10/22 08:30:14;;;;;;;1.83;1.00;;;15.00;99.90;;;;;;5075744;28;20264;-80
2023/10/22 08:32:47;;;;;;;2.07;1.40;;;15.10;99.90;;;;;;5077157;28;20174;-79
2023/10/22 08:35:13;;;;;;;2.03;1.30;;;15.20;19.10;;;;;;5072862;28;20213;-80
2023/10/22 08:37:39;;;;;;;1.67;1.00;;;15.30;1.00;;;;;;5073649;28;20896;-80
2023/10/22 08:40:08;;;;;;;1.60;1.03;;;15.50;1.00;;;;;;5061929;28;20437;-79
2023/10/22 08:42:35;;;;;;;1.53;1.10;;;15.70;99.90;;;;;;5073962;28;20435;-79
2023/10/22 08:45:02;;;;;;;3.07;1.20;;;16.10;1.00;;;;;;5076339;28;20459;-80
2023/10/22 08:47:31;;;;;;;1.63;0.97;;;16.60;1.00;;;;;;5076921;28;20439;-80
2023/10/22 08:49:58;;;;;;;2.10;0.97;;;16.90;1.00;;;;;;5072957;28;20448;-80
2023/10/22 08:52:24;;;;;;;4.47;2.13;;;17.00;1.00;;;;;;5075608;28;20904;-80
2023/10/22 08:54:51;;;;;;;2.60;1.27;;;17.00;99.90;;;;;;5072996;28;20480;-80
2023/10/22 08:57:20;;;;;;;1.83;1.10;;;17.00;99.90;;;;;;5074554;28;20435;-80
2023/10/22 08:59:47;;;;;;;3.87;1.17;;;16.80;1.00;;;;;;5076833;28;20797;-80
2023/10/22 09:02:13;;;;;;;1.63;0.70;;;16.70;1.00;;;;;;5076010;28;20431;-80
2023/10/22 09:04:39;;;;;;;2.90;1.30;;;16.60;1.00;;;;;;5065803;28;20490;-79
2023/10/22 09:07:05;;;;;;;1.80;1.07;;;16.60;28.70;;;;;;5067780;28;20444;-79
2023/10/22 09:09:38;;;;;;;5.20;2.10;;;16.50;40.30;;;;;;5076665;28;20446;-78
2023/10/22 09:12:08;;;;;;;2.47;1.20;;;16.40;99.90;;;;;;5070292;28;20193;-80
2023/10/22 09:14:33;;;;;;;2.10;0.80;;;16.50;99.90;;;;;;5074165;28;20471;-80
2023/10/22 09:17:15;;;;;;;1.40;0.90;;;16.50;99.90;;;;;;5075004;28;20442;-80
2023/10/22 09:19:41;;;;;;;2.23;0.80;;;16.50;99.90;;;;;;5074996;28;20203;-79
2023/10/22 09:22:06;;;;;;;3.37;1.17;;;16.40;99.90;;;;;;5069152;28;20439;-81
2023/10/22 09:24:33;;;;;;;2.20;0.70;;;16.30;99.90;;;;;;5068606;28;20185;-79
2023/10/22 09:26:59;;;;;;;1.53;0.90;;;16.30;99.90;;;;;;5075249;28;20651;-80
2023/10/22 09:29:26;;;;;;;1.40;0.83;;;16.30;99.90;;;;;;5076188;28;20429;-79
2023/10/22 09:31:53;;;;;;;1.57;0.90;;;16.30;99.90;;;;;;5068777;28;20189;-80
2023/10/22 09:34:30;;;;;;;1.30;0.90;;;16.30;99.90;;;;;;5069374;28;20499;-81
2023/10/22 09:36:57;;;;;;;1.33;0.90;;;16.30;99.90;;;;;;5065241;28;20484;-80
2023/10/22 09:39:33;;;;;;;3.73;1.30;;;16.20;99.90;;;;;;5076120;28;20442;-81
2023/10/22 09:41:59;;;;;;;2.00;1.10;;;16.10;99.90;;;;;;5064616;28;20447;-81
2023/10/22 09:44:26;;;;;;;2.30;1.07;;;16.20;99.90;;;;;;5072665;28;20453;-80
2023/10/22 09:46:54;;;;;;;1.50;1.00;;;16.30;99.90;;;;;;5063692;28;20745;-81
2023/10/22 09:49:21;;;;;;;2.00;1.10;;;16.30;99.90;;;;;;5074211;28;20450;-79
2023/10/22 09:51:49;;;;;;;3.00;1.30;;;16.40;99.90;;;;;;5074106;28;21005;-81
2023/10/22 09:54:16;;;;;;;2.60;1.20;;;16.50;1.00;;;;;;5073073;28;20463;-80
2023/10/22 09:56:50;;;;;;;3.17;1.23;;;16.60;1.00;;;;;;5075645;28;20487;-81
2023/10/22 09:59:17;;;;;;;3.73;1.00;;;16.80;1.00;;;;;;5070994;28;20530;-80
2023/10/22 10:01:43;;;;;;;2.50;1.03;;;16.80;99.90;;;;;;5072744;28;20493;-81
2023/10/22 10:04:09;;;;;;;1.43;0.60;;;16.80;99.90;;;;;;5073946;28;20431;-81
2023/10/22 10:06:36;;;;;;;2.07;0.93;;;16.70;99.90;;;;;;5068803;28;20205;-80
2023/10/22 10:09:03;;;;;;;2.83;0.80;;;16.70;99.90;;;;;;5075538;28;20205;-81
2023/10/22 10:11:29;;;;;;;1.60;0.70;;;16.70;99.90;;;;;;5074338;28;20438;-80
2023/10/22 10:13:55;;;;;;;3.80;0.87;;;16.80;99.90;;;;;;5074464;28;20475;-80
2023/10/22 10:16:23;;;;;;;1.10;0.70;;;17.00;99.90;;;;;;5068999;28;20463;-81
2023/10/22 10:18:59;;;;;;;2.10;0.90;;;17.10;99.90;;;;;;5075465;28;20193;-81
2023/10/22 10:21:34;;;;;;;1.60;0.80;;;17.20;99.90;;;;;;5066845;28;20823;-80
2023/10/22 10:24:15;;;;;;;1.77;0.80;;;17.40;27.10;;;;;;5075481;28;20803;-81
2023/10/22 10:26:41;;;;;;;3.63;1.20;;;17.60;1.00;;;;;;5074883;28;20451;-81
2023/10/22 10:29:06;;;;;;;3.30;0.90;;;17.80;1.00;;;;;;5066757;28;20507;-79
2023/10/22 10:31:32;;;;;;;3.00;1.30;;;18.00;1.00;;;;;;5069604;28;20231;-80
2023/10/22 10:34:01;;;;;;;1.70;0.70;;;18.20;1.00;;;;;;5078190;28;20221;-79
2023/10/22 10:36:28;;;;;;;2.93;1.10;;;18.10;1.00;;;;;;5075878;28;20747;-81
2023/10/22 10:38:54;;;;;;;2.53;1.10;;;18.20;1.00;;;;;;5074970;28;20526;-79
2023/10/22 10:41:51;;;;;;;4.20;1.13;;;18.10;1.00;;;;;;5064825;28;20437;-80
2023/10/22 10:44:17;;;;;;;1.40;0.90;;;18.20;1.00;;;;;;5072817;28;20447;-82
2023/10/22 10:46:42;;;;;;;1.70;0.83;;;18.40;1.00;;;;;;5074012;28;20463;-81
2023/10/22 10:49:08;;;;;;;2.73;1.10;;;18.60;1.00;;;;;;5071568;28;20197;-81
2023/10/22 10:51:33;;;;;;;1.60;0.80;;;18.90;1.00;;;;;;5071978;28;20264;-81
2023/10/22 10:54:08;;;;;;;2.93;1.30;;;19.30;1.00;;;;;;5070266;28;20207;-81
2023/10/22 10:56:55;;;;;;;2.80;0.90;;;19.70;1.00;;;;;;5074669;28;20208;-81
2023/10/22 10:59:25;;;;;;;2.70;1.60;;;19.90;1.00;;;;;;5074630;28;20955;-81
2023/10/22 11:02:01;;;;;;;1.30;0.70;;;20.10;1.00;;;;;;5074895;28;20592;-81
2023/10/22 11:04:28;;;;;;;2.03;0.90;;;20.20;1.00;;;;;;5065828;28;20442;-80
2023/10/22 11:06:54;;;;;;;1.77;0.97;;;20.30;99.90;;;;;;5073891;28;20435;-82
2023/10/22 11:09:20;;;;;;;2.80;1.20;;;20.50;99.90;;;;;;5075156;28;20446;-81
2023/10/22 11:12:01;;;;;;;1.83;0.90;;;20.70;99.90;;;;;;5073098;28;21002;-81
2023/10/22 11:14:27;;;;;;;1.30;0.63;;;20.70;99.90;;;;;;5074400;28;20992;-81
2023/10/22 11:16:59;;;;;;;1.50;0.77;;;20.70;99.90;;;;;;5069807;28;20437;-81
2023/10/22 11:19:26;;;;;;;1.43;0.77;;;20.90;99.90;;;;;;5073941;28;20173;-82
2023/10/22 11:21:56;;;;;;;1.70;1.00;;;20.80;99.90;;;;;;5071017;28;20434;-81
2023/10/22 11:24:33;;;;;;;1.50;1.00;;;20.60;99.90;;;;;;5073093;28;20944;-81
2023/10/22 11:27:05;;;;;;;1.40;0.90;;;20.60;99.90;;;;;;5075159;28;20451;-81
2023/10/22 11:29:40;;;;;;;2.37;0.70;;;20.40;99.90;;;;;;5067024;28;20439;-81
2023/10/22 11:32:11;;;;;;;1.33;0.80;;;20.40;99.90;;;;;;5074957;28;20431;-81
2023/10/22 11:34:46;;;;;;;2.17;0.70;;;20.20;99.90;;;;;;5072036;28;20467;-80
2023/10/22 11:37:12;;;;;;;1.60;0.70;;;20.20;99.90;;;;;;5065447;28;20435;-81
2023/10/22 11:39:38;;;;;;;1.57;0.60;;;20.20;99.90;;;;;;5069579;28;20439;-81
2023/10/22 11:42:07;;;;;;;1.03;0.60;;;20.20;99.90;;;;;;5075607;28;20948;-81
2023/10/22 11:44:35;;;;;;;1.77;0.50;;;20.40;99.90;;;;;;5076834;28;20216;-80
2023/10/22 11:47:02;;;;;;;2.80;0.60;;;20.60;99.90;;;;;;5073729;28;20839;-82
2023/10/22 11:49:28;;;;;;;1.10;0.60;;;20.60;99.90;;;;;;5073067;28;20937;-81
2023/10/22 11:51:54;;;;;;;1.00;0.50;;;21.10;99.90;;;;;;5071421;28;20504;-81
2023/10/22 11:54:41;;;;;;;1.30;0.50;;;22.20;99.90;;;;;;5073234;28;20463;-81
2023/10/22 11:57:07;;;;;;;1.10;0.60;;;22.80;99.90;;;;;;5075449;28;20181;-81
2023/10/22 11:59:33;;;;;;;1.20;0.60;;;22.70;99.90;;;;;;5076584;28;20889;-81
2023/10/22 12:01:59;;;;;;;4.80;0.80;;;22.80;99.90;;;;;;5069723;28;20177;-80
2023/10/22 12:04:24;;;;;;;2.30;0.80;;;22.30;99.90;;;;;;5069811;28;20440;-81
2023/10/22 12:06:50;;;;;;;1.10;0.60;;;22.90;99.90;;;;;;5075897;28;20188;-81
2023/10/22 12:09:16;;;;;;;1.43;0.90;;;23.40;99.90;;;;;;5076563;28;20194;-81
2023/10/22 12:11:41;;;;;;;2.23;0.60;;;23.60;99.90;;;;;;5074957;28;20197;-79
2023/10/22 12:14:07;;;;;;;1.73;0.60;;;23.00;99.90;;;;;;5072238;28;20209;-82
2023/10/22 12:16:32;;;;;;;1.10;0.70;;;22.70;99.90;;;;;;5077831;28;20209;-81
2023/10/22 12:18:58;;;;;;;1.10;0.60;;;22.30;99.90;;;;;;5075213;28;20674;-81
2023/10/22 12:21:24;;;;;;;1.53;1.00;;;21.70;99.90;;;;;;5077372;28;20186;-81
2023/10/22 12:23:49;;;;;;;2.33;0.97;;;21.40;99.90;;;;;;5076356;28;20181;-81
2023/10/22 12:26:15;;;;;;;1.20;0.67;;;21.00;99.90;;;;;;5076989;28;20447;-81
2023/10/22 12:28:40;;;;;;;1.73;0.87;;;20.70;99.90;;;;;;5063871;28;20181;-81
2023/10/22 12:31:07;;;;;;;1.57;0.70;;;20.40;99.90;;;;;;5075848;28;20196;-80
2023/10/22 12:33:33;;;;;;;1.77;0.77;;;20.20;99.90;;;;;;5076914;28;20295;-80
2023/10/22 12:36:01;;;;;;;1.47;0.70;;;20.00;99.90;;;;;;5067695;28;20491;-81
2023/10/22 12:38:27;;;;;;;1.37;0.67;;;20.00;99.90;;;;;;5068039;28;20197;-81
2023/10/22 12:40:52;;;;;;;1.20;0.60;;;20.10;99.90;;;;;;5068153;28;20440;-82
2023/10/22 12:43:18;;;;;;;1.07;0.60;;;20.30;99.90;;;;;;5077255;28;20178;-81
2023/10/22 12:45:43;;;;;;;2.40;0.60;;;20.40;99.90;;;;;;5071956;28;20212;-81
2023/10/22 12:48:09;;;;;;;1.40;0.60;;;20.30;99.90;;;;;;5076330;28;20555;-81